createdAt,value
2022-09-04T00:02:59.821Z,100.00
2022-09-04T00:05:26.844Z,100.00
2022-09-04T00:08:24.860Z,100.00
2022-09-04T00:11:14.975Z,100.00
2022-09-04T00:13:57.354Z,100.00
2022-09-04T00:16:30.607Z,100.00
2022-09-04T00:19:20.641Z,100.00
2022-09-04T00:21:53.340Z,100.00
2022-09-04T00:24:30.991Z,100.00
2022-09-04T00:27:04.045Z,100.00
2022-09-04T00:29:48.485Z,100.00
2022-09-04T00:32:49.808Z,100.00
2022-09-04T00:35:31.449Z,100.00
2022-09-04T00:38:08.764Z,100.00
2022-09-04T00:40:56.984Z,100.00
2022-09-04T00:43:27.073Z,100.00
2022-09-04T00:46:14.452Z,100.00
2022-09-04T00:49:09.816Z,100.00
2022-09-04T00:52:12.344Z,100.00
2022-09-04T00:55:11.608Z,100.00
2022-09-04T00:57:59.964Z,100.00
2022-09-04T01:00:28.877Z,100.00
2022-09-04T01:03:14.305Z,100.00
2022-09-04T01:05:47.445Z,100.00
2022-09-04T01:08:20.485Z,100.00
2022-09-04T01:11:01.009Z,100.00
2022-09-04T01:13:45.232Z,100.00
2022-09-04T01:16:35.994Z,100.00
2022-09-04T01:19:43.032Z,100.00
2022-09-04T01:22:28.696Z,100.00
2022-09-04T01:25:26.900Z,100.00
2022-09-04T01:28:07.131Z,100.00
2022-09-04T01:30:49.162Z,100.00
2022-09-04T01:33:31.607Z,100.00
2022-09-04T01:36:20.341Z,100.00
2022-09-04T01:38:58.453Z,100.00
2022-09-04T01:41:47.079Z,100.00
2022-09-04T01:44:14.246Z,100.00
2022-09-04T01:46:47.348Z,100.00
2022-09-04T01:49:26.661Z,100.00
2022-09-04T01:52:11.030Z,100.00
2022-09-04T01:54:48.814Z,100.00
2022-09-04T01:57:42.077Z,100.00
2022-09-04T02:00:13.725Z,100.00
2022-09-04T02:02:50.464Z,100.00
2022-09-04T02:05:26.277Z,100.00
2022-09-04T02:08:00.228Z,100.00
2022-09-04T02:11:02.552Z,100.00
2022-09-04T02:13:44.865Z,100.00
2022-09-04T02:16:27.000Z,100.00
2022-09-04T02:19:13.859Z,100.00
2022-09-04T02:21:48.097Z,100.00
2022-09-04T02:24:25.743Z,100.00
2022-09-04T02:26:59.959Z,100.00
2022-09-04T02:29:33.277Z,100.00
2022-09-04T02:32:28.795Z,100.00
2022-09-04T02:35:06.875Z,100.00
2022-09-04T02:37:40.985Z,100.00
2022-09-04T02:40:24.200Z,100.00
2022-09-04T02:43:32.392Z,100.00
2022-09-04T02:46:07.125Z,100.00
2022-09-04T02:49:08.175Z,100.00
2022-09-04T02:51:53.296Z,100.00
2022-09-04T02:54:57.927Z,100.00
2022-09-04T02:57:43.878Z,100.00
2022-09-04T03:00:21.911Z,100.00
2022-09-04T03:03:07.085Z,100.00
2022-09-04T03:05:43.553Z,100.00
2022-09-04T03:08:20.841Z,100.00
2022-09-04T03:10:59.062Z,100.00
2022-09-04T03:13:46.514Z,100.00
2022-09-04T03:16:26.264Z,100.00
2022-09-04T03:19:12.341Z,100.00
2022-09-04T03:21:56.318Z,100.00
2022-09-04T03:24:34.219Z,100.00
2022-09-04T03:27:08.186Z,100.00
2022-09-04T03:30:07.856Z,100.00
2022-09-04T03:32:46.826Z,100.00
2022-09-04T03:35:34.047Z,100.00
2022-09-04T03:38:11.973Z,100.00
2022-09-04T03:40:45.146Z,100.00
2022-09-04T03:43:31.482Z,100.00
2022-09-04T03:46:31.219Z,100.00
2022-09-04T03:49:08.868Z,100.00
2022-09-04T03:51:55.617Z,100.00
2022-09-04T03:54:32.316Z,100.00
2022-09-04T03:57:23.993Z,100.00
2022-09-04T03:59:54.055Z,100.00
2022-09-04T04:02:37.263Z,100.00
2022-09-04T04:05:36.893Z,100.00
2022-09-04T04:08:30.936Z,100.00
2022-09-04T04:11:26.823Z,100.00
2022-09-04T04:14:26.278Z,100.00
2022-09-04T04:17:02.699Z,100.00
2022-09-04T04:19:47.402Z,100.00
2022-09-04T04:23:02.354Z,100.00
2022-09-04T04:26:07.816Z,100.00
2022-09-04T04:28:58.563Z,100.00
2022-09-04T04:31:34.485Z,100.00
2022-09-04T04:34:16.793Z,100.00
2022-09-04T04:37:04.759Z,100.00
2022-09-04T04:39:49.916Z,100.00
2022-09-04T04:42:22.705Z,100.00
2022-09-04T04:45:29.877Z,100.00
2022-09-04T04:48:15.036Z,100.00
2022-09-04T04:51:05.255Z,100.00
2022-09-04T04:53:57.100Z,100.00
2022-09-04T04:56:33.977Z,100.00
2022-09-04T04:59:25.745Z,100.00
2022-09-04T05:02:09.816Z,100.00
2022-09-04T05:04:46.033Z,100.00
2022-09-04T05:07:38.190Z,100.00
2022-09-04T05:10:18.273Z,100.00
2022-09-04T05:12:59.035Z,100.00
2022-09-04T05:15:43.800Z,100.00
2022-09-04T05:18:31.443Z,100.00
2022-09-04T05:21:13.640Z,100.00
2022-09-04T05:23:46.474Z,100.00
2022-09-04T05:26:24.604Z,100.00
2022-09-04T05:29:05.192Z,100.00
2022-09-04T05:31:50.195Z,100.00
2022-09-04T05:34:20.576Z,100.00
2022-09-04T05:37:19.785Z,100.00
2022-09-04T05:40:14.714Z,100.00
2022-09-04T05:42:45.421Z,100.00
2022-09-04T05:45:29.340Z,100.00
2022-09-04T05:48:11.595Z,100.00
2022-09-04T05:50:58.980Z,100.00
2022-09-04T05:53:49.000Z,100.00
2022-09-04T05:56:38.980Z,100.00
2022-09-04T05:59:37.008Z,100.00
2022-09-04T06:02:42.479Z,100.00
2022-09-04T06:05:24.295Z,100.00
2022-09-04T06:08:19.782Z,100.00
2022-09-04T06:10:58.863Z,100.00
2022-09-04T06:13:38.065Z,100.00
2022-09-04T06:16:33.247Z,100.00
2022-09-04T06:19:21.974Z,100.00
2022-09-04T06:22:19.432Z,100.00
2022-09-04T06:25:09.443Z,100.00
2022-09-04T06:28:07.705Z,100.00
2022-09-04T06:30:56.643Z,100.00
2022-09-04T06:33:56.203Z,100.00
2022-09-04T06:36:33.642Z,100.00
2022-09-04T06:39:32.463Z,100.00
2022-09-04T06:42:05.635Z,100.00
2022-09-04T06:44:53.598Z,100.00
2022-09-04T06:47:29.714Z,100.00
2022-09-04T06:50:24.607Z,100.00
2022-09-04T06:53:37.213Z,100.00
2022-09-04T06:56:22.921Z,100.00
2022-09-04T06:59:11.164Z,100.00
2022-09-04T07:02:09.139Z,100.00
2022-09-04T07:04:43.225Z,100.00
2022-09-04T07:07:22.410Z,100.00
2022-09-04T07:10:04.270Z,100.00
2022-09-04T07:13:10.659Z,100.00
2022-09-04T07:15:49.539Z,100.00
2022-09-04T07:18:41.428Z,100.00
2022-09-04T07:21:34.348Z,100.00
2022-09-04T07:24:17.353Z,100.00
2022-09-04T07:27:17.768Z,100.00
2022-09-04T07:29:51.309Z,100.00
2022-09-04T07:32:41.441Z,100.00
2022-09-04T07:35:34.329Z,100.00
2022-09-04T07:38:29.149Z,100.00
2022-09-04T07:41:04.722Z,100.00
2022-09-04T07:44:06.854Z,100.00
2022-09-04T07:46:44.470Z,100.00
2022-09-04T07:49:21.103Z,100.00
2022-09-04T07:51:57.929Z,100.00
2022-09-04T07:54:43.186Z,100.00
2022-09-04T07:57:35.363Z,100.00
2022-09-04T08:00:08.475Z,100.00
2022-09-04T08:03:03.120Z,100.00
2022-09-04T08:05:36.943Z,100.00
2022-09-04T08:08:39.573Z,100.00
2022-09-04T08:11:26.565Z,100.00
2022-09-04T08:14:22.062Z,100.00
2022-09-04T08:17:20.796Z,100.00
2022-09-04T08:19:54.694Z,100.00
2022-09-04T08:22:42.484Z,100.00
2022-09-04T08:25:20.316Z,100.00
2022-09-04T08:28:03.193Z,100.00
2022-09-04T08:30:40.067Z,100.00
2022-09-04T08:33:37.825Z,100.00
2022-09-04T08:36:13.864Z,100.00
2022-09-04T08:38:47.090Z,100.00
2022-09-04T08:41:17.135Z,100.00
2022-09-04T08:44:34.978Z,100.00
2022-09-04T08:47:14.099Z,100.00
2022-09-04T08:49:51.991Z,100.00
2022-09-04T08:52:37.388Z,100.00
2022-09-04T08:55:04.427Z,100.00
2022-09-04T08:57:59.462Z,100.00
2022-09-04T09:00:45.319Z,100.00
2022-09-04T09:03:35.054Z,100.00
2022-09-04T09:06:39.547Z,100.00
2022-09-04T09:09:34.575Z,100.00
2022-09-04T09:12:16.927Z,100.00
2022-09-04T09:15:09.979Z,100.00
2022-09-04T09:17:39.595Z,100.00
2022-09-04T09:20:38.247Z,99.04
2022-09-04T09:23:18.391Z,100.00
2022-09-04T09:26:15.005Z,100.00
2022-09-04T09:29:06.826Z,100.00
2022-09-04T09:32:08.574Z,100.00
2022-09-04T09:34:41.775Z,100.00
2022-09-04T09:37:46.248Z,98.90
2022-09-04T09:40:39.745Z,98.15
2022-09-04T09:43:42.974Z,99.67
2022-09-04T09:46:36.516Z,100.00
2022-09-04T09:49:15.562Z,100.00
2022-09-04T09:52:01.323Z,100.00
2022-09-04T09:54:59.556Z,99.01
2022-09-04T09:57:45.368Z,95.90
2022-09-04T10:00:15.449Z,92.20
2022-09-04T10:03:19.953Z,93.39
2022-09-04T10:06:13.039Z,92.66
2022-09-04T10:09:09.515Z,92.51
2022-09-04T10:12:14.394Z,93.50
2022-09-04T10:15:06.193Z,86.55
2022-09-04T10:17:47.009Z,83.98
2022-09-04T10:20:28.354Z,84.87
2022-09-04T10:23:30.873Z,82.40
2022-09-04T10:26:29.329Z,81.56
2022-09-04T10:29:29.535Z,78.05
2022-09-04T10:32:02.575Z,79.50
2022-09-04T10:34:42.939Z,73.22
2022-09-04T10:37:49.934Z,68.68
2022-09-04T10:40:46.949Z,74.23
2022-09-04T10:43:22.569Z,75.24
2022-09-04T10:46:13.925Z,73.26
2022-09-04T10:49:04.013Z,73.52
2022-09-04T10:51:36.813Z,73.39
2022-09-04T10:54:22.662Z,71.42
2022-09-04T10:57:29.681Z,71.42
2022-09-04T11:00:10.899Z,69.34
2022-09-04T11:03:05.712Z,67.64
2022-09-04T11:05:52.564Z,67.45
2022-09-04T11:08:42.665Z,64.80
2022-09-04T11:11:19.107Z,66.18
2022-09-04T11:14:14.664Z,67.64
2022-09-04T11:16:47.575Z,67.60
2022-09-04T11:19:36.189Z,68.11
2022-09-04T11:22:23.135Z,65.95
2022-09-04T11:25:19.062Z,64.85
2022-09-04T11:28:06.199Z,63.95
2022-09-04T11:30:56.393Z,62.13
2022-09-04T11:33:33.375Z,61.62
2022-09-04T11:36:21.901Z,58.29
2022-09-04T11:39:13.236Z,55.80
2022-09-04T11:42:08.350Z,56.50
2022-09-04T11:44:46.169Z,60.77
2022-09-04T11:47:45.271Z,61.08
2022-09-04T11:50:24.215Z,60.30
2022-09-04T11:53:13.051Z,61.40
2022-09-04T11:56:11.775Z,59.29
2022-09-04T11:58:57.860Z,59.94
2022-09-04T12:01:31.037Z,58.28
2022-09-04T12:04:27.454Z,57.91
2022-09-04T12:07:02.464Z,59.03
2022-09-04T12:09:44.027Z,59.37
2022-09-04T12:12:29.604Z,57.77
2022-09-04T12:15:07.559Z,58.01
2022-09-04T12:18:08.343Z,58.30
2022-09-04T12:20:47.911Z,56.75
2022-09-04T12:23:29.355Z,57.37
2022-09-04T12:26:23.415Z,55.21
2022-09-04T12:29:29.683Z,54.82
2022-09-04T12:32:02.947Z,56.14
2022-09-04T12:34:55.025Z,55.38
2022-09-04T12:37:43.468Z,55.26
2022-09-04T12:40:29.553Z,55.22
2022-09-04T12:43:24.355Z,55.03
2022-09-04T12:45:57.231Z,54.82
2022-09-04T12:48:27.956Z,54.30
2022-09-04T12:51:12.222Z,54.27
2022-09-04T12:54:00.896Z,55.01
2022-09-04T12:56:40.857Z,54.66
2022-09-04T12:59:15.989Z,53.22
2022-09-04T13:01:48.789Z,53.28
2022-09-04T13:04:27.680Z,52.51
2022-09-04T13:07:24.298Z,53.04
2022-09-04T13:10:09.421Z,53.46
2022-09-04T13:13:12.121Z,53.47
2022-09-04T13:16:10.247Z,52.08
2022-09-04T13:18:44.714Z,52.42
2022-09-04T13:21:37.786Z,51.27
2022-09-04T13:24:27.962Z,51.03
2022-09-04T13:27:15.184Z,50.61
2022-09-04T13:30:05.537Z,49.96
2022-09-04T13:32:48.682Z,49.70
2022-09-04T13:35:41.378Z,49.56
2022-09-04T13:38:08.692Z,50.33
2022-09-04T13:41:06.773Z,49.35
2022-09-04T13:44:00.653Z,48.88
2022-09-04T13:46:35.160Z,48.09
2022-09-04T13:49:07.503Z,48.29
2022-09-04T13:51:43.040Z,47.47
2022-09-04T13:54:24.834Z,46.86
2022-09-04T13:57:06.037Z,46.07
2022-09-04T13:59:34.226Z,46.23
2022-09-04T14:02:04.767Z,44.01
2022-09-04T14:04:44.060Z,45.62
2022-09-04T14:07:24.567Z,45.16
2022-09-04T14:09:55.279Z,44.16
2022-09-04T14:12:25.006Z,45.00
2022-09-04T14:15:01.045Z,43.55
2022-09-04T14:17:54.591Z,44.81
2022-09-04T14:20:33.467Z,45.11
2022-09-04T14:23:21.387Z,44.78
2022-09-04T14:26:19.392Z,33.92
2022-09-04T14:29:04.196Z,25.54
2022-09-04T14:31:46.675Z,22.01
2022-09-04T14:34:59.933Z,22.61
2022-09-04T14:37:49.833Z,23.00
2022-09-04T14:40:58.170Z,22.49
2022-09-04T14:43:49.444Z,19.55
2022-09-04T14:46:41.965Z,21.50
2022-09-04T14:49:15.986Z,18.96
2022-09-04T14:51:47.476Z,16.72
2022-09-04T14:54:43.548Z,17.52
2022-09-04T14:57:23.399Z,19.38
2022-09-04T14:59:58.977Z,21.05
2022-09-04T15:02:35.859Z,19.67
2022-09-04T15:05:15.256Z,18.44
2022-09-04T15:07:42.340Z,17.33
2022-09-04T15:10:28.520Z,16.71
2022-09-04T15:13:01.376Z,16.70
2022-09-04T15:15:34.647Z,15.15
2022-09-04T15:18:23.540Z,16.23
2022-09-04T15:21:09.000Z,17.06
2022-09-04T15:23:47.921Z,17.77
2022-09-04T15:26:46.393Z,19.57
2022-09-04T15:29:37.126Z,20.44
2022-09-04T15:32:13.679Z,22.49
2022-09-04T15:34:41.720Z,23.01
2022-09-04T15:37:24.684Z,25.48
2022-09-04T15:40:04.955Z,25.42
2022-09-04T15:42:36.565Z,27.17
2022-09-04T15:45:30.514Z,26.02
2022-09-04T15:48:03.827Z,24.83
2022-09-04T15:50:36.312Z,19.31
2022-09-04T15:53:27.022Z,18.82
2022-09-04T15:56:24.299Z,22.02
2022-09-04T15:59:16.031Z,28.37
2022-09-04T16:01:55.212Z,30.24
2022-09-04T16:04:29.881Z,30.82
2022-09-04T16:07:34.203Z,31.59
2022-09-04T16:10:04.003Z,32.17
2022-09-04T16:12:49.688Z,33.14
2022-09-04T16:15:35.317Z,34.14
2022-09-04T16:18:15.874Z,34.60
2022-09-04T16:20:59.947Z,34.12
2022-09-04T16:23:31.651Z,34.34
2022-09-04T16:25:59.872Z,35.46
2022-09-04T16:28:35.090Z,36.53
2022-09-04T16:31:06.474Z,35.85
2022-09-04T16:33:45.312Z,33.57
2022-09-04T16:36:18.204Z,28.36
2022-09-04T16:38:52.737Z,26.52
2022-09-04T16:41:29.036Z,25.68
2022-09-04T16:44:13.868Z,24.60
2022-09-04T16:46:51.352Z,25.95
2022-09-04T16:49:29.852Z,24.51
2022-09-04T16:52:00.333Z,26.04
2022-09-04T16:54:41.272Z,26.65
2022-09-04T16:57:18.495Z,29.58
2022-09-04T16:59:54.014Z,31.33
2022-09-04T17:02:49.078Z,31.80
2022-09-04T17:05:35.609Z,32.06
2022-09-04T17:08:08.473Z,32.40
2022-09-04T17:10:53.819Z,33.99
2022-09-04T17:13:38.901Z,34.44
2022-09-04T17:16:22.725Z,34.52
2022-09-04T17:18:55.570Z,37.69
2022-09-04T17:25:18.222Z,36.31
2022-09-04T17:28:57.382Z,36.99
2022-09-04T17:29:24.872Z,37.52
2022-09-04T17:31:23.277Z,37.87
2022-09-04T17:40:32.781Z,40.48
2022-09-04T17:40:40.624Z,43.03
2022-09-04T17:40:53.606Z,41.65
2022-09-04T17:43:36.315Z,43.21
2022-09-04T17:46:29.342Z,44.48
2022-09-04T17:48:56.539Z,44.66
2022-09-04T17:51:27.268Z,44.09
2022-09-04T17:54:01.014Z,43.40
2022-09-04T17:56:54.020Z,46.26
2022-09-04T17:59:24.548Z,44.30
2022-09-04T18:02:01.133Z,44.03
2022-09-04T18:04:37.843Z,45.45
2022-09-04T18:08:07.472Z,45.82
2022-09-04T18:10:34.084Z,46.36
2022-09-04T18:13:28.399Z,47.15
2022-09-04T18:16:30.880Z,44.48
2022-09-04T18:19:23.038Z,44.34
2022-09-04T18:22:25.047Z,45.56
2022-09-04T18:24:52.636Z,45.08
2022-09-04T18:27:30.294Z,46.03
2022-09-04T18:34:38.097Z,44.62
2022-09-04T18:37:18.590Z,46.30
2022-09-04T18:37:25.322Z,47.98
2022-09-04T18:39:25.290Z,47.96
2022-09-04T18:50:22.400Z,48.15
2022-09-04T18:50:36.087Z,49.64
2022-09-04T18:50:45.118Z,48.56
2022-09-04T18:51:19.474Z,52.04
2022-09-04T18:53:41.071Z,51.44
2022-09-04T18:56:30.684Z,50.77
2022-09-04T18:59:06.962Z,50.26
2022-09-04T19:02:01.685Z,50.06
2022-09-04T19:04:50.114Z,52.81
2022-09-04T19:07:27.260Z,53.70
2022-09-04T19:10:06.189Z,52.86
2022-09-04T19:12:46.879Z,51.61
2022-09-04T19:15:27.469Z,51.83
2022-09-04T19:18:26.308Z,52.80
2022-09-04T19:21:10.002Z,51.66
2022-09-04T19:23:58.764Z,53.18
2022-09-04T19:26:50.503Z,52.87
2022-09-04T19:29:24.111Z,53.14
2022-09-04T19:32:33.121Z,53.65
2022-09-04T19:35:19.002Z,53.60
2022-09-04T19:40:36.640Z,53.97
2022-09-04T19:45:58.993Z,55.21
2022-09-04T19:46:09.597Z,55.25
2022-09-04T19:47:29.439Z,56.83
2022-09-04T19:53:19.394Z,56.90
2022-09-04T19:53:39.072Z,56.38
2022-09-04T19:56:22.913Z,56.17
2022-09-04T19:58:55.515Z,57.36
2022-09-04T20:01:32.931Z,58.16
2022-09-04T20:04:09.551Z,58.16
2022-09-04T20:06:45.879Z,58.49
2022-09-04T20:09:30.749Z,58.73
2022-09-04T20:12:10.600Z,58.93
2022-09-04T20:14:45.895Z,58.52
2022-09-04T20:17:22.171Z,60.96
2022-09-04T20:19:56.620Z,59.39
2022-09-04T20:22:37.228Z,58.98
2022-09-04T20:25:07.249Z,59.44
2022-09-04T20:27:48.315Z,59.95
2022-09-04T20:30:25.412Z,61.52
2022-09-04T20:33:16.473Z,60.96
2022-09-04T20:35:59.648Z,60.59
2022-09-04T20:38:36.931Z,60.18
2022-09-04T20:41:41.261Z,61.06
2022-09-04T20:44:23.840Z,62.43
2022-09-04T20:52:40.786Z,63.09
2022-09-04T20:53:07.403Z,62.67
2022-09-04T20:53:22.665Z,62.92
2022-09-04T20:55:58.678Z,62.51
2022-09-04T21:03:14.759Z,63.44
2022-09-04T21:03:22.694Z,64.07
2022-09-04T21:05:00.228Z,64.99
2022-09-04T21:07:34.820Z,64.14
2022-09-04T21:10:32.972Z,66.02
2022-09-04T21:13:20.339Z,64.65
2022-09-04T21:15:49.136Z,64.36
2022-09-04T21:18:40.825Z,65.94
2022-09-04T21:21:34.785Z,67.75
2022-09-04T21:24:18.841Z,66.47
2022-09-04T21:26:57.779Z,66.32
2022-09-04T21:29:48.814Z,66.09
2022-09-04T21:32:18.950Z,66.79
2022-09-04T21:35:23.160Z,68.34
2022-09-04T21:38:04.118Z,69.25
2022-09-04T21:40:51.345Z,69.28
2022-09-04T21:43:59.191Z,70.02
2022-09-04T21:46:49.142Z,69.34
2022-09-04T21:49:38.227Z,69.38
2022-09-04T21:52:33.053Z,69.72
2022-09-04T21:59:56.876Z,69.84
2022-09-04T22:02:28.727Z,70.52
2022-09-04T22:02:48.470Z,70.96
2022-09-04T22:04:47.864Z,70.66
2022-09-04T22:11:39.830Z,71.09
2022-09-04T22:13:39.856Z,71.71
2022-09-04T22:14:09.879Z,72.18
2022-09-04T22:17:14.910Z,72.51
2022-09-04T22:19:48.040Z,71.79
2022-09-04T22:22:30.261Z,70.90
2022-09-04T22:25:12.338Z,71.78
2022-09-04T22:28:18.284Z,71.56
2022-09-04T22:30:48.909Z,71.06
2022-09-04T22:34:16.123Z,70.34
2022-09-04T22:37:01.051Z,71.27
2022-09-04T22:39:47.101Z,71.25
2022-09-04T22:42:28.906Z,71.41
2022-09-04T22:45:32.072Z,70.88
2022-09-04T22:47:59.117Z,70.40
2022-09-04T22:50:49.590Z,71.89
2022-09-04T22:53:46.007Z,72.34
2022-09-04T22:56:32.521Z,71.72
2022-09-04T22:59:26.642Z,72.04
2022-09-04T23:03:04.158Z,72.30
2022-09-04T23:07:05.321Z,72.52
2022-09-04T23:13:48.667Z,72.77
2022-09-04T23:13:58.373Z,73.33
2022-09-04T23:15:52.831Z,74.33
2022-09-04T23:21:09.215Z,74.40
2022-09-04T23:26:38.917Z,75.41
2022-09-04T23:26:47.175Z,74.68
2022-09-04T23:28:28.022Z,75.54
2022-09-04T23:31:29.404Z,75.29
2022-09-04T23:34:37.641Z,76.28
2022-09-04T23:37:29.979Z,75.16
2022-09-04T23:40:10.250Z,74.97
2022-09-04T23:42:46.322Z,75.64
2022-09-04T23:46:01.549Z,75.84
2022-09-04T23:48:44.702Z,76.29
2022-09-04T23:51:36.370Z,76.71
2022-09-04T23:54:24.980Z,77.62
2022-09-04T23:56:57.870Z,76.97
2022-09-04T23:59:37.090Z,77.82
